createdAt,value
2022-10-05T00:01:01.133Z,97662.06
2022-10-05T00:03:33.563Z,97667.50
2022-10-05T00:06:03.483Z,97660.59
2022-10-05T00:08:41.482Z,97673.00
2022-10-05T00:11:10.870Z,97674.09
2022-10-05T00:13:40.590Z,97672.59
2022-10-05T00:16:19.644Z,97669.03
2022-10-05T00:18:54.584Z,97665.19
2022-10-05T00:21:29.409Z,97673.69
2022-10-05T00:23:58.207Z,97672.94
2022-10-05T00:26:35.807Z,97674.50
2022-10-05T00:29:18.744Z,97677.97
2022-10-05T00:31:45.380Z,97674.84
2022-10-05T00:34:12.018Z,97660.47
2022-10-05T00:36:40.061Z,97668.50
2022-10-05T00:39:09.216Z,97659.63
2022-10-05T00:42:02.955Z,97666.94
2022-10-05T00:45:01.643Z,97663.81
2022-10-05T00:47:31.256Z,97660.25
2022-10-05T00:50:05.980Z,97650.22
2022-10-05T00:52:41.437Z,97640.56
2022-10-05T00:55:19.515Z,97647.06
2022-10-05T00:57:58.921Z,97657.06
2022-10-05T01:00:27.264Z,97659.78
2022-10-05T01:02:59.388Z,97659.75
2022-10-05T01:05:40.546Z,97653.56
2022-10-05T01:08:16.256Z,97655.47
2022-10-05T01:10:56.026Z,97649.28
2022-10-05T01:13:31.318Z,97646.94
2022-10-05T01:16:17.115Z,97643.06
2022-10-05T01:18:51.435Z,97638.41
2022-10-05T01:21:18.341Z,97639.91
2022-10-05T01:24:03.635Z,97644.94
2022-10-05T01:26:45.107Z,97639.09
2022-10-05T01:29:30.629Z,97638.69
2022-10-05T01:32:19.283Z,97630.19
2022-10-05T01:35:04.965Z,97638.69
2022-10-05T01:37:49.532Z,97630.13
2022-10-05T01:40:34.683Z,97630.94
2022-10-05T01:43:25.057Z,97632.84
2022-10-05T01:46:15.058Z,97630.91
2022-10-05T01:48:50.912Z,97640.63
2022-10-05T01:51:30.699Z,97633.66
2022-10-05T01:54:03.666Z,97636.72
2022-10-05T01:56:57.121Z,97636.69
2022-10-05T01:59:42.002Z,97637.38
2022-10-05T02:02:16.969Z,97627.31
2022-10-05T02:05:03.900Z,97636.97
2022-10-05T02:07:34.832Z,97634.63
2022-10-05T02:10:09.035Z,97634.72
2022-10-05T02:12:38.450Z,97624.28
2022-10-05T02:15:15.257Z,97630.75
2022-10-05T02:17:50.708Z,97626.09
2022-10-05T02:20:31.496Z,97623.81
2022-10-05T02:23:08.121Z,97632.66
2022-10-05T02:25:43.666Z,97621.09
2022-10-05T02:28:21.898Z,97617.59
2022-10-05T02:31:07.752Z,97623.38
2022-10-05T02:33:38.212Z,97624.53
2022-10-05T02:36:10.884Z,97629.13
2022-10-05T02:38:44.034Z,97619.75
2022-10-05T02:41:25.783Z,97618.59
2022-10-05T02:44:19.613Z,97621.78
2022-10-05T02:47:02.706Z,97606.75
2022-10-05T02:49:56.678Z,97625.63
2022-10-05T02:53:12.580Z,97622.06
2022-10-05T02:55:56.009Z,97621.78
2022-10-05T02:58:30.928Z,97611.00
2022-10-05T03:01:09.520Z,97617.09
2022-10-05T03:03:49.482Z,97619.06
2022-10-05T03:06:25.573Z,97613.22
2022-10-05T03:09:09.471Z,97615.97
2022-10-05T03:11:51.638Z,97621.75
2022-10-05T03:14:48.629Z,97606.31
2022-10-05T03:17:26.077Z,97611.06
2022-10-05T03:20:30.944Z,97613.72
2022-10-05T03:23:03.893Z,97607.53
2022-10-05T03:25:48.406Z,97606.78
2022-10-05T03:28:24.795Z,97616.47
2022-10-05T03:31:06.114Z,97609.47
2022-10-05T03:34:05.714Z,97610.69
2022-10-05T03:36:57.241Z,97616.13
2022-10-05T03:39:27.187Z,97613.78
2022-10-05T03:42:17.998Z,97615.78
2022-10-05T03:45:02.794Z,97615.41
2022-10-05T03:47:51.543Z,97611.19
2022-10-05T03:51:03.069Z,97621.59
2022-10-05T03:54:01.339Z,97616.22
2022-10-05T03:56:36.252Z,97616.69
2022-10-05T03:59:20.713Z,97622.16
2022-10-05T04:02:06.543Z,97626.81
2022-10-05T04:04:42.611Z,97627.97
2022-10-05T04:07:22.294Z,97622.16
2022-10-05T04:09:55.868Z,97624.94
2022-10-05T04:12:45.164Z,97624.16
2022-10-05T04:15:20.696Z,97634.56
2022-10-05T04:17:52.456Z,97632.19
2022-10-05T04:20:48.986Z,97634.19
2022-10-05T04:23:29.826Z,97628.75
2022-10-05T04:26:04.434Z,97628.44
2022-10-05T04:28:54.249Z,97629.97
2022-10-05T04:31:38.691Z,97623.78
2022-10-05T04:34:27.739Z,97628.44
2022-10-05T04:37:06.358Z,97625.63
2022-10-05T04:40:06.911Z,97631.13
2022-10-05T04:42:47.965Z,97626.88
2022-10-05T04:45:39.603Z,97627.59
2022-10-05T04:48:34.590Z,97632.63
2022-10-05T04:51:09.409Z,97626.03
2022-10-05T04:53:54.318Z,97634.56
2022-10-05T04:56:30.850Z,97618.38
2022-10-05T04:59:00.218Z,97634.19
2022-10-05T05:01:48.188Z,97644.25
2022-10-05T05:04:35.929Z,97637.25
2022-10-05T05:07:40.211Z,97626.41
2022-10-05T05:10:38.922Z,97638.44
2022-10-05T05:13:11.554Z,97641.53
2022-10-05T05:15:51.624Z,97631.91
2022-10-05T05:18:59.053Z,97646.56
2022-10-05T05:21:28.671Z,97641.13
2022-10-05T05:24:04.757Z,97641.53
2022-10-05T05:26:47.141Z,97639.28
2022-10-05T05:29:26.198Z,97650.91
2022-10-05T05:32:08.658Z,97646.22
2022-10-05T05:34:43.845Z,97651.69
2022-10-05T05:37:32.566Z,97656.34
2022-10-05T05:40:10.192Z,97650.53
2022-10-05T05:42:49.458Z,97654.34
2022-10-05T05:45:48.283Z,97660.16
2022-10-05T05:48:33.330Z,97659.06
2022-10-05T05:51:08.362Z,97664.06
2022-10-05T05:53:41.705Z,97661.75
2022-10-05T05:56:16.112Z,97673.41
2022-10-05T05:58:42.707Z,97660.31
2022-10-05T06:01:35.504Z,97664.91
2022-10-05T06:04:11.987Z,97664.88
2022-10-05T06:06:47.090Z,97664.47
2022-10-05T06:09:22.842Z,97668.31
2022-10-05T06:11:56.460Z,97662.09
2022-10-05T06:14:34.178Z,97657.84
2022-10-05T06:17:17.809Z,97663.59
2022-10-05T06:19:50.609Z,97656.56
2022-10-05T06:22:40.929Z,97660.06
2022-10-05T06:25:13.800Z,97664.31
2022-10-05T06:27:55.643Z,97669.09
2022-10-05T06:30:26.863Z,97674.03
2022-10-05T06:33:13.652Z,97663.16
2022-10-05T06:35:57.760Z,97669.72
2022-10-05T06:38:36.508Z,97675.16
2022-10-05T06:41:24.076Z,97679.03
2022-10-05T06:43:58.873Z,97670.03
2022-10-05T06:46:34.037Z,97682.66
2022-10-05T06:49:08.980Z,97679.53
2022-10-05T06:51:38.436Z,97682.25
2022-10-05T06:54:14.256Z,97685.38
2022-10-05T06:56:46.392Z,97677.53
2022-10-05T06:59:34.505Z,97679.06
2022-10-05T07:02:16.254Z,97686.34
2022-10-05T07:04:45.753Z,97687.06
2022-10-05T07:07:34.692Z,97694.47
2022-10-05T07:10:12.997Z,97689.72
2022-10-05T07:12:47.068Z,97688.56
2022-10-05T07:15:34.760Z,97694.66
2022-10-05T07:18:25.533Z,97699.41
2022-10-05T07:21:05.609Z,97699.78
2022-10-05T07:23:53.453Z,97705.25
2022-10-05T07:26:33.888Z,97676.19
2022-10-05T07:29:14.891Z,97693.38
2022-10-05T07:31:44.851Z,97701.03
2022-10-05T07:34:20.882Z,97696.31
2022-10-05T07:37:18.497Z,97694.38
2022-10-05T07:40:01.132Z,97688.09
2022-10-05T07:42:59.948Z,97696.88
2022-10-05T07:45:47.639Z,97698.06
2022-10-05T07:48:37.158Z,97697.63
2022-10-05T07:51:08.632Z,97698.25
2022-10-05T07:53:43.847Z,97698.16
2022-10-05T07:56:49.790Z,97706.97
2022-10-05T07:59:33.009Z,97692.00
2022-10-05T08:02:23.832Z,97704.56
2022-10-05T08:04:56.047Z,97705.88
2022-10-05T08:10:16.673Z,97699.38
2022-10-05T08:13:22.226Z,97698.81
2022-10-05T08:15:54.029Z,97695.41
2022-10-05T08:18:42.289Z,97697.34
2022-10-05T08:21:16.955Z,97690.84
2022-10-05T08:24:13.176Z,97697.28
2022-10-05T08:27:02.205Z,97698.25
2022-10-05T08:29:41.293Z,97693.44
2022-10-05T08:32:22.756Z,97696.06
2022-10-05T08:35:15.444Z,97694.28
2022-10-05T08:37:46.254Z,97689.78
2022-10-05T08:40:18.892Z,97703.56
2022-10-05T08:42:58.836Z,97698.19
2022-10-05T08:45:49.283Z,97698.91
2022-10-05T08:48:18.923Z,97699.00
2022-10-05T08:51:10.275Z,97699.16
2022-10-05T08:54:07.202Z,97695.03
2022-10-05T08:56:45.086Z,97691.31
2022-10-05T08:59:45.821Z,97692.78
2022-10-05T09:02:12.319Z,97692.91
2022-10-05T09:04:41.856Z,97687.06
2022-10-05T09:07:14.965Z,97690.19
2022-10-05T09:10:33.970Z,97688.88
2022-10-05T09:13:11.830Z,97693.19
2022-10-05T09:15:41.147Z,97688.78
2022-10-05T09:18:45.354Z,97703.38
2022-10-05T09:21:43.147Z,97696.81
2022-10-05T09:24:15.012Z,97692.66
2022-10-05T09:26:41.500Z,97690.88
2022-10-05T09:29:16.827Z,97697.75
2022-10-05T09:32:20.373Z,97694.16
2022-10-05T09:35:00.530Z,97693.31
2022-10-05T09:37:50.616Z,97694.91
2022-10-05T09:40:32.563Z,97694.44
2022-10-05T09:43:14.238Z,97688.97
2022-10-05T09:45:48.672Z,97691.81
2022-10-05T09:48:46.093Z,97689.16
2022-10-05T09:51:33.226Z,97685.78
2022-10-05T09:54:14.985Z,97679.63
2022-10-05T09:57:04.222Z,97677.63
2022-10-05T09:59:52.653Z,97674.03
2022-10-05T10:02:33.538Z,97677.34
2022-10-05T10:05:26.320Z,97674.63
2022-10-05T10:08:20.281Z,97676.31
2022-10-05T10:10:52.475Z,97676.94
2022-10-05T10:13:56.650Z,97672.09
2022-10-05T10:16:41.345Z,97671.81
2022-10-05T10:19:20.033Z,97673.03
2022-10-05T10:22:24.064Z,97668.59
2022-10-05T10:25:27.645Z,97665.44
2022-10-05T10:28:13.295Z,97663.28
2022-10-05T10:31:19.989Z,97665.06
2022-10-05T10:33:58.592Z,97651.59
2022-10-05T10:36:34.313Z,97661.81
2022-10-05T10:39:06.710Z,97656.53
2022-10-05T10:41:39.353Z,97648.84
2022-10-05T10:44:30.606Z,97650.63
2022-10-05T10:47:15.660Z,97649.94
2022-10-05T10:50:11.639Z,97643.78
2022-10-05T10:52:59.623Z,97655.97
2022-10-05T10:55:34.517Z,97653.53
2022-10-05T10:58:19.758Z,97650.34
2022-10-05T11:01:23.650Z,97656.13
2022-10-05T11:04:05.015Z,97651.22
2022-10-05T11:06:52.786Z,97644.81
2022-10-05T11:09:56.954Z,97642.28
2022-10-05T11:12:54.449Z,97631.50
2022-10-05T11:15:27.145Z,97635.69
2022-10-05T11:17:56.325Z,97629.81
2022-10-05T11:21:01.543Z,97621.72
2022-10-05T11:23:38.964Z,97624.00
2022-10-05T11:26:42.098Z,97634.66
2022-10-05T11:29:17.877Z,97626.75
2022-10-05T11:31:59.752Z,97617.13
2022-10-05T11:34:35.000Z,97615.53
2022-10-05T11:37:29.160Z,97614.03
2022-10-05T11:40:20.954Z,97601.44
2022-10-05T11:43:08.358Z,97604.63
2022-10-05T11:45:58.096Z,97585.34
2022-10-05T11:48:41.836Z,97585.78
2022-10-05T11:51:29.524Z,97588.31
2022-10-05T11:54:18.386Z,97583.53
2022-10-05T11:56:54.672Z,97586.38
2022-10-05T11:59:27.064Z,97568.25
2022-10-05T12:02:10.824Z,97574.44
2022-10-05T12:05:10.779Z,97570.34
2022-10-05T12:07:43.045Z,97560.16
2022-10-05T12:10:32.680Z,97560.16
2022-10-05T12:13:05.320Z,97550.28
2022-10-05T12:15:54.439Z,97553.94
2022-10-05T12:18:44.170Z,97543.78
2022-10-05T12:21:27.608Z,97547.28
2022-10-05T12:24:04.999Z,97542.69
2022-10-05T12:26:34.370Z,97543.00
2022-10-05T12:29:35.776Z,97535.69
2022-10-05T12:32:05.962Z,97538.44
2022-10-05T12:34:47.321Z,97539.06
2022-10-05T12:37:40.356Z,97529.75
2022-10-05T12:40:17.551Z,97531.13
2022-10-05T12:42:50.378Z,97524.53
2022-10-05T12:45:34.970Z,97533.44
2022-10-05T12:48:10.559Z,97523.97
2022-10-05T12:50:46.446Z,97520.25
2022-10-05T12:53:28.725Z,97512.16
2022-10-05T12:56:08.567Z,97518.75
2022-10-05T12:58:50.461Z,97514.91
2022-10-05T13:01:38.385Z,97512.59
2022-10-05T13:04:27.428Z,97517.31
2022-10-05T13:07:29.217Z,97511.16
2022-10-05T13:10:40.401Z,97507.16
2022-10-05T13:13:24.842Z,97513.75
2022-10-05T13:16:17.933Z,97509.78
2022-10-05T13:19:01.385Z,97505.97
2022-10-05T13:21:46.627Z,97509.31
2022-10-05T13:24:18.438Z,97512.63
2022-10-05T13:26:54.831Z,97502.22
2022-10-05T13:29:34.739Z,97503.13
2022-10-05T13:32:12.736Z,97497.19
2022-10-05T13:35:00.090Z,97497.59
2022-10-05T13:37:45.301Z,97498.78
2022-10-05T13:40:33.259Z,97497.28
2022-10-05T13:43:33.711Z,97500.84
2022-10-05T13:46:12.593Z,97503.31
2022-10-05T13:48:56.959Z,97502.53
2022-10-05T13:51:36.384Z,97499.16
2022-10-05T13:54:27.103Z,97506.97
2022-10-05T13:57:18.479Z,97503.44
2022-10-05T13:59:57.675Z,97508.13
2022-10-05T14:02:32.844Z,97504.41
2022-10-05T14:05:01.513Z,97498.75
2022-10-05T14:07:39.081Z,97495.91
2022-10-05T14:10:28.673Z,97484.66
2022-10-05T14:12:55.685Z,97477.28
2022-10-05T14:15:32.749Z,97479.56
2022-10-05T14:17:59.328Z,97484.84
2022-10-05T14:20:27.714Z,97491.38
2022-10-05T14:23:01.108Z,97481.75
2022-10-05T14:25:33.491Z,97481.91
2022-10-05T14:28:02.004Z,97477.13
2022-10-05T14:30:32.794Z,97479.38
2022-10-05T14:33:05.423Z,97486.44
2022-10-05T14:35:52.634Z,97482.34
2022-10-05T14:38:22.529Z,97487.50
2022-10-05T14:41:07.784Z,97478.75
2022-10-05T14:43:34.778Z,97479.88
2022-10-05T14:46:14.890Z,97472.06
2022-10-05T14:48:44.021Z,97476.47
2022-10-05T14:51:32.226Z,97482.81
2022-10-05T14:54:01.029Z,97478.84
2022-10-05T14:56:33.634Z,97478.09
2022-10-05T14:59:06.310Z,97487.50
2022-10-05T15:01:39.384Z,97476.09
2022-10-05T15:04:30.410Z,97479.69
2022-10-05T15:07:13.627Z,97474.75
2022-10-05T15:10:27.049Z,97473.06
2022-10-05T15:12:58.335Z,97472.84
2022-10-05T15:15:43.624Z,97469.13
2022-10-05T15:18:10.078Z,97470.66
2022-10-05T15:21:06.332Z,97474.25
2022-10-05T15:23:43.024Z,97474.00
2022-10-05T15:26:30.662Z,97471.25
2022-10-05T15:29:36.158Z,97473.84
2022-10-05T15:32:24.289Z,97472.06
2022-10-05T15:35:15.096Z,97486.47
2022-10-05T15:37:43.592Z,97482.63
2022-10-05T15:40:26.885Z,97474.06
2022-10-05T15:43:03.359Z,97477.47
2022-10-05T15:45:41.266Z,97474.06
2022-10-05T15:48:07.908Z,97485.13
2022-10-05T15:51:00.855Z,97486.72
2022-10-05T15:53:51.680Z,97485.94
2022-10-05T15:56:23.572Z,97487.19
2022-10-05T15:58:57.468Z,97490.69
2022-10-05T16:01:33.324Z,97487.53
2022-10-05T16:04:36.482Z,97489.97
2022-10-05T16:07:22.072Z,97485.06
2022-10-05T16:09:52.057Z,97492.75
2022-10-05T16:12:33.546Z,97495.34
2022-10-05T16:15:17.665Z,97510.53
2022-10-05T16:18:21.175Z,97503.69
2022-10-05T16:20:53.595Z,97501.88
2022-10-05T16:23:56.488Z,97499.75
2022-10-05T16:26:44.760Z,97507.44
2022-10-05T16:29:33.208Z,97509.44
2022-10-05T16:32:14.846Z,97513.09
2022-10-05T16:35:02.589Z,97524.38
2022-10-05T16:37:56.224Z,97524.22
2022-10-05T16:40:31.437Z,97533.81
2022-10-05T16:43:03.995Z,97524.16
2022-10-05T16:46:15.654Z,97536.53
2022-10-05T16:48:52.632Z,97540.13
2022-10-05T16:51:24.482Z,97538.88
2022-10-05T16:54:19.168Z,97542.16
2022-10-05T16:56:54.384Z,97549.06
2022-10-05T16:59:38.458Z,97550.09
2022-10-05T17:02:29.206Z,97558.88
2022-10-05T17:05:23.129Z,97565.47
2022-10-05T17:08:08.590Z,97562.13
2022-10-05T17:10:37.195Z,97567.09
2022-10-05T17:13:19.700Z,97575.22
2022-10-05T17:16:13.302Z,97579.69
2022-10-05T17:19:00.855Z,97575.66
2022-10-05T17:21:37.063Z,97579.50
2022-10-05T17:24:41.578Z,97585.47
2022-10-05T17:27:19.716Z,97590.50
2022-10-05T17:30:17.974Z,97595.31
2022-10-05T17:33:03.329Z,97603.09
2022-10-05T17:35:52.094Z,97599.91
2022-10-05T17:38:22.241Z,97605.06
2022-10-05T17:41:23.776Z,97597.19
2022-10-05T17:44:21.327Z,97613.94
2022-10-05T17:47:04.517Z,97612.06
2022-10-05T17:50:15.568Z,97611.97
2022-10-05T17:53:02.693Z,97622.91
2022-10-05T17:55:34.744Z,97629.75
2022-10-05T17:58:24.123Z,97629.31
2022-10-05T18:00:56.794Z,97627.44
2022-10-05T18:03:41.771Z,97638.03
2022-10-05T18:06:26.454Z,97636.06
2022-10-05T18:09:22.991Z,97640.09
2022-10-05T18:12:17.876Z,97653.00
2022-10-05T18:14:52.822Z,97660.53
2022-10-05T18:17:46.300Z,97665.09
2022-10-05T18:20:30.167Z,97664.72
2022-10-05T18:23:02.857Z,97679.66
2022-10-05T18:25:39.447Z,97657.13
2022-10-05T18:28:28.198Z,97673.91
2022-10-05T18:30:55.126Z,97680.06
2022-10-05T18:33:57.546Z,97682.31
2022-10-05T18:36:57.979Z,97688.53
2022-10-05T18:39:35.886Z,97686.91
2022-10-05T18:42:35.782Z,97692.47
2022-10-05T18:45:27.440Z,97694.19
2022-10-05T18:47:56.730Z,97699.31
2022-10-05T18:50:31.977Z,97698.28
2022-10-05T18:53:35.961Z,97706.34
2022-10-05T18:56:16.724Z,97697.63
2022-10-05T18:58:52.070Z,97703.09
2022-10-05T19:01:30.774Z,97719.31
2022-10-05T19:04:12.614Z,97716.38
2022-10-05T19:07:10.486Z,97728.25
2022-10-05T19:10:13.560Z,97733.69
2022-10-05T19:12:56.825Z,97732.56
2022-10-05T19:15:35.575Z,97739.97
2022-10-05T19:18:21.753Z,97738.19
2022-10-05T19:20:57.241Z,97740.97
2022-10-05T19:23:48.902Z,97745.00
2022-10-05T19:26:21.918Z,97738.75
2022-10-05T19:29:09.357Z,97758.63
2022-10-05T19:31:45.394Z,97746.19
2022-10-05T19:34:32.820Z,97753.00
2022-10-05T19:37:09.982Z,97750.25
2022-10-05T19:39:42.407Z,97755.31
2022-10-05T19:42:15.091Z,97757.31
2022-10-05T19:45:25.857Z,97762.00
2022-10-05T19:48:22.238Z,97761.41
2022-10-05T19:50:58.229Z,97755.72
2022-10-05T19:53:37.476Z,97764.75
2022-10-05T19:56:20.158Z,97777.69
2022-10-05T19:58:48.487Z,97788.69
2022-10-05T20:01:38.913Z,97789.09
2022-10-05T20:04:06.911Z,97786.84
2022-10-05T20:06:37.477Z,97801.97
2022-10-05T20:09:20.176Z,97807.41
2022-10-05T20:11:56.624Z,97815.66
2022-10-05T20:14:32.768Z,97809.22
2022-10-05T20:17:44.582Z,97816.41
2022-10-05T20:20:25.676Z,97824.44
2022-10-05T20:22:54.785Z,97813.72
2022-10-05T20:25:21.265Z,97835.91
2022-10-05T20:27:51.530Z,97835.63
2022-10-05T20:30:27.554Z,97846.16
2022-10-05T20:33:09.229Z,97850.97
2022-10-05T20:35:38.264Z,97851.03
2022-10-05T20:38:07.064Z,97850.72
2022-10-05T20:40:33.743Z,97851.13
2022-10-05T20:43:02.578Z,97854.28
2022-10-05T20:45:31.424Z,97857.34
2022-10-05T20:48:00.307Z,97848.47
2022-10-05T20:50:27.824Z,97859.09
2022-10-05T20:52:54.471Z,97866.66
2022-10-05T20:55:23.242Z,97865.59
2022-10-05T20:57:52.101Z,97872.22
2022-10-05T21:00:20.950Z,97872.66
2022-10-05T21:02:47.569Z,97873.44
2022-10-05T21:05:18.525Z,97860.75
2022-10-05T21:07:45.313Z,97871.91
2022-10-05T21:10:17.539Z,97883.56
2022-10-05T21:12:44.564Z,97888.66
2022-10-05T21:15:12.802Z,97889.38
2022-10-05T21:17:44.217Z,97894.06
2022-10-05T21:20:12.699Z,97880.88
2022-10-05T21:22:39.651Z,97889.38
2022-10-05T21:25:09.387Z,97884.38
2022-10-05T21:27:35.921Z,97895.78
2022-10-05T21:30:02.485Z,97887.72
2022-10-05T21:32:31.570Z,97885.81
2022-10-05T21:34:58.117Z,97891.97
2022-10-05T21:37:29.755Z,97896.75
2022-10-05T21:39:56.403Z,97889.50
2022-10-05T21:42:23.563Z,97909.38
2022-10-05T21:44:50.284Z,97898.50
2022-10-05T21:47:17.240Z,97905.47
2022-10-05T21:49:45.998Z,97895.06
2022-10-05T21:52:15.455Z,97907.13
2022-10-05T21:54:42.428Z,97919.19
2022-10-05T21:57:11.319Z,97921.94
2022-10-05T21:59:37.968Z,97918.09
2022-10-05T22:02:05.153Z,97916.47
2022-10-05T22:04:31.740Z,97906.84
2022-10-05T22:06:58.394Z,97916.91
2022-10-05T22:09:25.302Z,97923.09
2022-10-05T22:11:55.023Z,97919.59
2022-10-05T22:14:24.142Z,97916.19
2022-10-05T22:16:50.853Z,97920.22
2022-10-05T22:19:20.062Z,97928.44
2022-10-05T22:21:46.743Z,97925.38
2022-10-05T22:24:13.652Z,97933.56
2022-10-05T22:26:44.843Z,97937.44
2022-10-05T22:29:11.723Z,97931.25
2022-10-05T22:31:39.050Z,97921.91
2022-10-05T22:34:05.814Z,97927.78
2022-10-05T22:36:37.357Z,97927.44
2022-10-05T22:39:06.361Z,97928.63
2022-10-05T22:41:33.252Z,97944.19
2022-10-05T22:44:00.320Z,97936.41
2022-10-05T22:46:29.886Z,97945.69
2022-10-05T22:48:56.654Z,97933.03
2022-10-05T22:51:25.835Z,97947.34
2022-10-05T22:53:57.602Z,97948.16
2022-10-05T22:56:24.146Z,97949.38
2022-10-05T22:58:53.236Z,97941.28
2022-10-05T23:01:22.363Z,97951.75
2022-10-05T23:03:55.732Z,97943.63
2022-10-05T23:06:22.506Z,97950.66
2022-10-05T23:08:51.419Z,97939.50
2022-10-05T23:11:22.322Z,97951.06
2022-10-05T23:13:52.803Z,97951.84
2022-10-05T23:16:25.311Z,97954.50
2022-10-05T23:18:53.678Z,97968.09
2022-10-05T23:21:22.355Z,97970.03
2022-10-05T23:23:51.483Z,97965.44
2022-10-05T23:26:22.738Z,97971.63
2022-10-05T23:28:52.523Z,97972.81
2022-10-05T23:31:29.395Z,97972.81
2022-10-05T23:33:58.691Z,97972.75
2022-10-05T23:36:28.205Z,97956.97
2022-10-05T23:38:57.240Z,97970.03
2022-10-05T23:41:26.298Z,97971.19
2022-10-05T23:43:55.240Z,97978.88
2022-10-05T23:46:24.313Z,97971.91
2022-10-05T23:48:53.856Z,97972.25
2022-10-05T23:51:22.636Z,97976.41
2022-10-05T23:53:49.559Z,97967.50
2022-10-05T23:56:16.528Z,97968.22
2022-10-05T23:58:46.112Z,97966.72
